Time;durP1;ratioP1;P1;durP2;ratioP2;P2;SDS_P1;SDS_P2;PMS_P1;PMS_P2;Temp;Humidity;BMP_temperature;BMP_pressure;BME280_temperature;BME280_humidity;BME280_pressure;Samples;Min_cycle;Max_cycle;Signal;HPM_P1;HPM_P2
2023/06/12 00:02:27;;;;;;;3.30;1.67;;;12.80;60.80;;;;;;5051200;28;20195;-53
2023/06/12 00:04:59;;;;;;;3.53;1.75;;;12.80;60.80;;;;;;5050216;28;20275;-52
2023/06/12 00:07:30;;;;;;;2.80;1.77;;;12.90;60.90;;;;;;5051101;28;20302;-50
2023/06/12 00:10:01;;;;;;;3.42;2.20;;;12.90;60.90;;;;;;5052375;28;20186;-53
2023/06/12 00:12:33;;;;;;;4.30;2.28;;;12.90;60.90;;;;;;5050754;28;20227;-51
2023/06/12 00:15:04;;;;;;;3.65;1.98;;;13.00;61.00;;;;;;5051012;28;20195;-53
2023/06/12 00:17:34;;;;;;;3.70;2.40;;;13.00;61.10;;;;;;5050873;28;20713;-56
2023/06/12 00:20:06;;;;;;;4.28;2.15;;;13.00;61.10;;;;;;5050400;28;20195;-49
2023/06/12 00:22:40;;;;;;;7.15;2.40;;;13.00;61.00;;;;;;5050489;28;20195;-55
2023/06/12 00:25:11;;;;;;;7.18;3.15;;;13.10;61.10;;;;;;5058628;28;20187;-54
2023/06/12 00:27:43;;;;;;;5.75;2.35;;;13.10;61.10;;;;;;5050974;28;20213;-54
2023/06/12 00:30:15;;;;;;;5.05;2.42;;;13.10;61.10;;;;;;5049933;28;20191;-51
2023/06/12 00:32:46;;;;;;;5.57;2.53;;;13.20;61.20;;;;;;5049903;28;20230;-50
2023/06/12 00:35:18;;;;;;;5.70;2.22;;;13.20;61.10;;;;;;5052222;28;20199;-53
2023/06/12 00:37:49;;;;;;;4.13;1.92;;;13.20;61.00;;;;;;5050509;28;20241;-54
2023/06/12 00:40:20;;;;;;;2.80;2.10;;;13.30;61.00;;;;;;5049784;28;20199;-52
2023/06/12 00:42:53;;;;;;;3.60;1.83;;;13.30;61.10;;;;;;5065935;28;20274;-56
2023/06/12 00:45:24;;;;;;;4.55;1.98;;;13.30;61.20;;;;;;5061751;28;20199;-53
2023/06/12 00:47:58;;;;;;;5.00;2.22;;;13.30;61.20;;;;;;5050103;28;20198;-52
2023/06/12 00:50:29;;;;;;;3.28;2.15;;;13.40;61.10;;;;;;5050148;28;20275;-56
2023/06/12 00:53:02;;;;;;;3.75;2.13;;;13.40;61.10;;;;;;5054244;28;20729;-53
2023/06/12 00:55:34;;;;;;;4.00;2.05;;;13.40;61.10;;;;;;5061030;28;20222;-54
2023/06/12 00:58:07;;;;;;;5.38;2.08;;;13.50;61.10;;;;;;5050381;28;20199;-54
2023/06/12 01:00:40;;;;;;;5.60;2.70;;;13.50;61.20;;;;;;5049868;28;20211;-53
2023/06/12 01:03:12;;;;;;;5.18;2.58;;;13.50;61.30;;;;;;5050537;28;20206;-54
2023/06/12 01:05:45;;;;;;;5.75;2.10;;;13.60;61.40;;;;;;5049408;28;20211;-55
2023/06/12 01:08:23;;;;;;;4.82;2.10;;;13.60;61.30;;;;;;5049980;28;20203;-54
2023/06/12 01:10:58;;;;;;;4.13;2.05;;;13.60;61.20;;;;;;5052190;28;20196;-52
2023/06/12 01:13:33;;;;;;;4.55;2.10;;;13.70;61.20;;;;;;5052839;28;20234;-54
2023/06/12 01:16:03;;;;;;;3.80;2.20;;;13.70;61.20;;;;;;5054212;28;20690;-53
2023/06/12 01:18:34;;;;;;;4.38;2.10;;;13.70;61.20;;;;;;5069204;28;20665;-52
2023/06/12 01:21:12;;;;;;;3.55;2.03;;;13.70;61.10;;;;;;5062219;28;20648;-56
2023/06/12 01:24:14;;;;;;;4.65;2.33;;;13.80;61.20;;;;;;5053574;28;20286;-52
2023/06/12 01:27:18;;;;;;;4.55;2.33;;;13.80;61.20;;;;;;5054351;28;20250;-51
2023/06/12 01:30:08;;;;;;;4.78;1.90;;;13.90;61.30;;;;;;5051766;28;20195;-57
2023/06/12 01:32:41;;;;;;;3.67;1.92;;;13.90;61.20;;;;;;5053651;28;20255;-54
2023/06/12 01:35:16;;;;;;;4.68;2.08;;;13.90;61.10;;;;;;5053714;28;20223;-56
2023/06/12 01:37:53;;;;;;;5.38;2.35;;;13.90;61.20;;;;;;5053999;28;20647;-57
2023/06/12 01:40:27;;;;;;;3.33;2.28;;;14.00;61.20;;;;;;5056130;28;20194;-52
2023/06/12 01:42:58;;;;;;;4.75;2.00;;;14.00;61.20;;;;;;5053803;28;20202;-55
2023/06/12 01:45:29;;;;;;;2.92;1.75;;;14.00;61.20;;;;;;5053536;28;20548;-56
2023/06/12 01:48:02;;;;;;;3.70;2.08;;;14.10;61.30;;;;;;5053609;28;20196;-56
2023/06/12 01:50:32;;;;;;;3.50;1.95;;;14.10;61.20;;;;;;5053806;28;20194;-55
2023/06/12 01:53:03;;;;;;;4.93;2.42;;;14.20;61.20;;;;;;5053376;28;20715;-52
2023/06/12 01:55:34;;;;;;;3.08;1.90;;;14.10;61.10;;;;;;5053570;28;20290;-53
2023/06/12 01:58:05;;;;;;;3.83;1.90;;;14.20;61.00;;;;;;5052756;28;20207;-55
2023/06/12 02:00:35;;;;;;;3.17;1.90;;;14.20;61.00;;;;;;5053183;28;20195;-55
2023/06/12 02:03:08;;;;;;;4.20;1.98;;;14.20;61.00;;;;;;5052920;28;20196;-55
2023/06/12 02:05:38;;;;;;;3.03;2.13;;;14.30;61.10;;;;;;5053161;28;20290;-54
2023/06/12 02:08:09;;;;;;;3.92;2.08;;;14.30;61.10;;;;;;5071772;28;20693;-54
2023/06/12 02:10:40;;;;;;;3.72;2.20;;;14.30;61.10;;;;;;5067164;28;20188;-52
2023/06/12 02:13:11;;;;;;;2.60;1.80;;;14.30;61.00;;;;;;5053290;28;20238;-56
2023/06/12 02:15:41;;;;;;;5.40;2.25;;;14.40;61.10;;;;;;5053298;28;20215;-54
2023/06/12 02:18:14;;;;;;;3.88;1.80;;;14.40;61.00;;;;;;5053479;28;20253;-56
2023/06/12 02:20:45;;;;;;;4.47;2.13;;;14.40;61.00;;;;;;5052973;28;20207;-56
2023/06/12 02:23:15;;;;;;;5.45;2.33;;;14.40;61.00;;;;;;5053191;28;20948;-56
2023/06/12 02:25:46;;;;;;;4.22;1.85;;;14.50;61.00;;;;;;5053444;28;20223;-56
2023/06/12 02:28:17;;;;;;;3.35;1.83;;;14.50;60.90;;;;;;5053899;28;20203;-56
2023/06/12 02:30:47;;;;;;;4.38;2.15;;;14.50;60.90;;;;;;5053047;28;20553;-55
2023/06/12 02:33:22;;;;;;;2.88;1.80;;;14.50;60.80;;;;;;5055153;28;20264;-53
2023/06/12 02:35:52;;;;;;;3.47;1.92;;;14.60;60.90;;;;;;5053030;28;20229;-54
2023/06/12 02:38:23;;;;;;;3.78;2.10;;;14.60;60.80;;;;;;5053372;28;20558;-54
2023/06/12 02:40:54;;;;;;;3.78;2.17;;;14.60;60.70;;;;;;5053313;28;20570;-51
2023/06/12 02:43:24;;;;;;;4.63;2.17;;;14.60;60.70;;;;;;5053161;28;20648;-50
2023/06/12 02:45:55;;;;;;;3.63;2.08;;;14.70;60.80;;;;;;5052927;28;20219;-51
2023/06/12 02:48:28;;;;;;;3.33;2.05;;;14.70;60.80;;;;;;5053066;28;20278;-54
2023/06/12 02:50:59;;;;;;;4.10;1.90;;;14.70;60.80;;;;;;5053849;28;20274;-53
2023/06/12 02:53:29;;;;;;;5.40;2.53;;;14.70;60.70;;;;;;5052997;28;20223;-52
2023/06/12 02:56:00;;;;;;;4.07;2.10;;;14.80;60.80;;;;;;5052456;28;20225;-52
2023/06/12 02:58:32;;;;;;;4.57;2.15;;;14.80;60.80;;;;;;5052515;28;20199;-54
2023/06/12 03:01:04;;;;;;;3.25;2.03;;;14.80;60.80;;;;;;5052251;28;20729;-50
2023/06/12 03:03:39;;;;;;;3.55;2.08;;;14.80;60.70;;;;;;5052570;28;20195;-53
2023/06/12 03:06:11;;;;;;;4.18;2.20;;;14.90;60.80;;;;;;5052445;28;20238;-50
2023/06/12 03:08:42;;;;;;;4.47;2.47;;;14.90;60.70;;;;;;5052525;28;20279;-49
2023/06/12 03:11:13;;;;;;;3.47;2.00;;;14.90;60.70;;;;;;5052679;28;20715;-51
2023/06/12 03:13:44;;;;;;;5.00;2.35;;;14.90;60.70;;;;;;5052124;28;20371;-54
2023/06/12 03:16:15;;;;;;;3.22;2.03;;;15.00;60.80;;;;;;5054107;28;20782;-52
2023/06/12 03:18:47;;;;;;;4.30;2.10;;;15.00;60.70;;;;;;5052222;28;20227;-56
2023/06/12 03:21:18;;;;;;;2.50;1.65;;;15.00;60.70;;;;;;5052057;28;20278;-51
2023/06/12 03:23:49;;;;;;;5.05;2.10;;;15.10;60.80;;;;;;5052266;28;20290;-51
2023/06/12 03:26:20;;;;;;;3.03;1.80;;;15.10;60.80;;;;;;5052248;28;20262;-52
2023/06/12 03:28:51;;;;;;;2.38;1.90;;;15.10;60.80;;;;;;5052753;28;20670;-55
2023/06/12 03:31:26;;;;;;;3.35;2.35;;;15.10;60.70;;;;;;5052419;28;20282;-57
2023/06/12 03:33:59;;;;;;;3.17;1.67;;;15.20;60.80;;;;;;5051097;28;20297;-53
2023/06/12 03:36:33;;;;;;;2.47;1.90;;;15.20;60.70;;;;;;5051644;28;20255;-54
2023/06/12 03:39:04;;;;;;;4.50;2.65;;;15.20;60.60;;;;;;5054372;28;20191;-57
2023/06/12 03:41:36;;;;;;;6.05;2.78;;;15.30;60.60;;;;;;5051828;28;20207;-54
2023/06/12 03:44:07;;;;;;;4.88;2.90;;;15.30;60.50;;;;;;5051818;28;20283;-55
2023/06/12 03:46:37;;;;;;;5.45;3.50;;;15.30;60.50;;;;;;5051489;28;20226;-56
2023/06/12 03:49:10;;;;;;;6.68;4.03;;;15.40;60.50;;;;;;5051885;28;20191;-54
2023/06/12 03:51:40;;;;;;;7.75;4.20;;;15.40;60.40;;;;;;5052116;28;20196;-57
2023/06/12 03:54:12;;;;;;;6.20;4.13;;;15.40;60.40;;;;;;5051906;28;20223;-55
2023/06/12 03:56:43;;;;;;;7.55;4.55;;;15.40;60.30;;;;;;5051384;28;20228;-56
2023/06/12 03:59:13;;;;;;;7.90;4.32;;;15.50;60.30;;;;;;5053842;28;20230;-55
2023/06/12 04:01:44;;;;;;;7.38;4.80;;;15.50;60.30;;;;;;5071728;28;20244;-56
2023/06/12 04:04:16;;;;;;;8.35;5.03;;;15.50;60.40;;;;;;5071821;28;20256;-56
2023/06/12 04:06:48;;;;;;;6.97;4.72;;;15.60;60.40;;;;;;5060938;28;20342;-55
2023/06/12 04:09:19;;;;;;;8.10;5.10;;;15.60;60.30;;;;;;5051589;28;20195;-57
2023/06/12 04:11:49;;;;;;;6.28;4.07;;;15.60;60.30;;;;;;5051531;28;20199;-57
2023/06/12 04:14:20;;;;;;;7.07;4.70;;;15.70;60.30;;;;;;5050968;28;20226;-54
2023/06/12 04:16:51;;;;;;;7.88;4.90;;;15.70;60.20;;;;;;5050398;28;20694;-54
2023/06/12 04:19:23;;;;;;;7.13;4.50;;;15.70;60.20;;;;;;5051134;28;20203;-55
2023/06/12 04:21:54;;;;;;;8.38;4.95;;;15.80;60.10;;;;;;5051378;28;20195;-54
2023/06/12 04:24:24;;;;;;;7.30;4.75;;;15.80;60.10;;;;;;5051202;28;20196;-55
2023/06/12 04:27:00;;;;;;;7.75;5.07;;;15.80;60.00;;;;;;5050909;28;20224;-57
2023/06/12 04:29:32;;;;;;;7.45;4.82;;;15.80;59.90;;;;;;5051754;28;20199;-55
2023/06/12 04:32:05;;;;;;;7.47;4.72;;;15.90;59.90;;;;;;5051241;28;20199;-57
2023/06/12 04:34:39;;;;;;;8.48;4.70;;;15.90;59.90;;;;;;5050989;28;20316;-53
2023/06/12 04:37:11;;;;;;;8.27;4.50;;;15.90;59.90;;;;;;5051116;28;20227;-56
2023/06/12 04:39:42;;;;;;;8.15;4.25;;;15.90;59.90;;;;;;5050827;28;20199;-55
2023/06/12 04:42:16;;;;;;;7.70;4.57;;;15.90;59.80;;;;;;5050554;28;20195;-58
2023/06/12 04:44:48;;;;;;;6.07;4.18;;;15.90;59.80;;;;;;5054921;28;20631;-56
2023/06/12 04:47:19;;;;;;;8.05;4.60;;;15.90;59.80;;;;;;5055161;28;20631;-56
2023/06/12 04:49:52;;;;;;;6.95;4.80;;;15.90;59.70;;;;;;5054999;28;20202;-57
2023/06/12 04:52:23;;;;;;;7.30;4.78;;;15.90;59.70;;;;;;5066539;28;20280;-55
2023/06/12 04:54:54;;;;;;;7.20;4.45;;;15.90;59.70;;;;;;5074825;28;20226;-56
2023/06/12 04:57:25;;;;;;;6.85;4.32;;;15.90;59.70;;;;;;5065620;28;20226;-54
2023/06/12 04:59:55;;;;;;;7.55;4.30;;;15.90;59.70;;;;;;5054419;28;20206;-57
2023/06/12 05:02:26;;;;;;;6.60;4.32;;;15.90;59.70;;;;;;5054605;28;20207;-56
2023/06/12 05:04:58;;;;;;;7.38;4.50;;;15.90;59.60;;;;;;5054329;28;20199;-58
2023/06/12 05:07:29;;;;;;;6.88;4.28;;;15.90;59.60;;;;;;5053972;28;20222;-55
2023/06/12 05:10:00;;;;;;;7.18;4.65;;;15.90;59.50;;;;;;5052024;28;20196;-56
2023/06/12 05:12:30;;;;;;;7.10;4.97;;;15.90;59.50;;;;;;5054009;28;20195;-58
2023/06/12 05:15:01;;;;;;;7.07;4.85;;;15.90;59.40;;;;;;5054590;28;20223;-58
2023/06/12 05:17:32;;;;;;;8.05;4.63;;;15.90;59.40;;;;;;5054264;28;20227;-53
2023/06/12 05:20:08;;;;;;;6.30;4.68;;;15.90;59.40;;;;;;5071167;28;20207;-57
2023/06/12 05:22:38;;;;;;;6.80;4.63;;;15.90;59.40;;;;;;5073877;28;20651;-57
2023/06/12 05:25:09;;;;;;;8.18;5.13;;;15.90;59.40;;;;;;5066882;28;20195;-58
2023/06/12 05:27:40;;;;;;;7.70;4.78;;;15.90;59.40;;;;;;5054857;28;20223;-56
2023/06/12 05:30:12;;;;;;;7.57;4.72;;;15.90;59.40;;;;;;5053637;28;20249;-56
2023/06/12 05:32:43;;;;;;;7.32;4.60;;;15.90;59.40;;;;;;5071493;28;20198;-54
2023/06/12 05:35:15;;;;;;;7.13;4.68;;;15.80;59.40;;;;;;5070702;28;20223;-52
2023/06/12 05:37:46;;;;;;;8.10;5.07;;;15.80;59.30;;;;;;5074442;28;20195;-58
2023/06/12 05:40:17;;;;;;;6.78;4.97;;;15.90;59.30;;;;;;5073990;28;20237;-55
2023/06/12 05:42:47;;;;;;;6.63;4.72;;;15.90;59.30;;;;;;5073953;28;20226;-56
2023/06/12 05:45:18;;;;;;;7.07;5.05;;;15.90;59.30;;;;;;5074066;28;20778;-55
2023/06/12 05:47:49;;;;;;;8.73;5.03;;;15.90;59.30;;;;;;5074374;28;20840;-53
2023/06/12 05:50:21;;;;;;;7.47;5.28;;;15.80;59.20;;;;;;5074235;28;20195;-56
2023/06/12 05:52:53;;;;;;;6.00;4.57;;;15.80;59.20;;;;;;5074104;28;20618;-53
2023/06/12 05:55:23;;;;;;;8.18;4.97;;;15.80;59.10;;;;;;5073096;28;20218;-53
2023/06/12 05:57:54;;;;;;;7.50;4.55;;;15.80;59.10;;;;;;5059934;28;20203;-52
2023/06/12 06:00:25;;;;;;;8.98;4.82;;;15.80;59.00;;;;;;5065827;28;20557;-54
2023/06/12 06:02:55;;;;;;;6.85;4.97;;;15.70;58.90;;;;;;5073952;28;20260;-55
2023/06/12 06:05:30;;;;;;;6.43;4.90;;;15.70;58.90;;;;;;5073610;28;20669;-56
2023/06/12 06:08:00;;;;;;;6.18;4.68;;;15.70;58.90;;;;;;5073678;28;20199;-54
2023/06/12 06:10:31;;;;;;;7.32;4.80;;;15.70;58.90;;;;;;5052788;28;20199;-56
2023/06/12 06:13:01;;;;;;;5.53;4.65;;;15.70;58.90;;;;;;5060735;28;20205;-53
2023/06/12 06:15:32;;;;;;;6.75;4.90;;;15.70;58.90;;;;;;5072337;28;20628;-57
2023/06/12 06:18:03;;;;;;;7.25;4.75;;;15.70;58.90;;;;;;5056159;28;20195;-54
2023/06/12 06:20:37;;;;;;;6.55;4.60;;;15.70;58.90;;;;;;5052534;28;20208;-58
2023/06/12 06:23:07;;;;;;;5.07;4.00;;;15.60;58.90;;;;;;5052368;28;20199;-54
2023/06/12 06:25:38;;;;;;;7.30;4.60;;;15.60;58.80;;;;;;5053103;28;20227;-56
2023/06/12 06:28:09;;;;;;;7.65;4.50;;;15.60;58.80;;;;;;5052399;28;20195;-54
2023/06/12 06:30:39;;;;;;;7.38;5.05;;;15.60;58.80;;;;;;5052199;28;20199;-53
2023/06/12 06:33:10;;;;;;;7.13;4.70;;;15.60;58.80;;;;;;5052693;28;20203;-54
2023/06/12 06:35:43;;;;;;;6.32;4.25;;;15.50;58.70;;;;;;5065986;28;20226;-55
2023/06/12 06:38:19;;;;;;;5.60;4.10;;;15.50;58.70;;;;;;5069430;28;20282;-54
2023/06/12 06:40:50;;;;;;;8.38;4.43;;;15.50;58.70;;;;;;5071589;28;20560;-51
2023/06/12 06:43:21;;;;;;;6.93;4.70;;;15.50;58.70;;;;;;5054209;28;20652;-55
2023/06/12 06:45:51;;;;;;;7.95;4.85;;;15.50;58.70;;;;;;5052285;28;20565;-56
2023/06/12 06:48:22;;;;;;;7.30;4.30;;;15.50;58.70;;;;;;5051881;28;20199;-57
2023/06/12 06:50:55;;;;;;;5.30;4.15;;;15.50;58.70;;;;;;5052482;28;20203;-52
2023/06/12 06:53:25;;;;;;;7.18;4.07;;;15.50;58.60;;;;;;5060296;28;20186;-54
2023/06/12 06:55:56;;;;;;;6.32;4.45;;;15.50;58.70;;;;;;5061763;28;20219;-48
2023/06/12 06:58:27;;;;;;;11.07;6.25;;;15.50;58.60;;;;;;5051401;28;20203;-54
2023/06/12 07:00:57;;;;;;;9.73;5.97;;;15.50;58.90;;;;;;5051839;28;20203;-54
2023/06/12 07:03:28;;;;;;;8.38;5.50;;;15.50;59.00;;;;;;5041977;28;20215;-53
2023/06/12 07:06:00;;;;;;;8.55;4.93;;;15.50;59.00;;;;;;5071674;28;20215;-55
2023/06/12 07:08:31;;;;;;;8.13;4.47;;;15.50;58.90;;;;;;5053855;28;20187;-55
2023/06/12 07:11:02;;;;;;;8.55;4.20;;;15.50;58.90;;;;;;5051487;28;20601;-51
2023/06/12 07:13:32;;;;;;;9.32;4.95;;;15.40;58.80;;;;;;5051290;28;20540;-49
2023/06/12 07:16:03;;;;;;;7.20;4.57;;;15.40;58.70;;;;;;5052120;28;20227;-52
2023/06/12 07:18:34;;;;;;;9.15;4.60;;;15.50;58.80;;;;;;5051930;28;20202;-51
2023/06/12 07:21:06;;;;;;;9.18;4.40;;;15.40;58.60;;;;;;5051694;28;20199;-51
2023/06/12 07:23:37;;;;;;;8.63;4.40;;;15.40;58.60;;;;;;5052262;28;20188;-52
2023/06/12 07:26:08;;;;;;;5.95;4.47;;;15.40;58.60;;;;;;5032464;28;20268;-51
2023/06/12 07:28:38;;;;;;;6.40;4.63;;;15.40;59.10;;;;;;5050465;28;20195;-51
2023/06/12 07:31:09;;;;;;;5.68;4.40;;;15.40;58.50;;;;;;5053839;28;20579;-52
2023/06/12 07:33:40;;;;;;;6.53;4.78;;;15.40;58.50;;;;;;5050858;28;20196;-50
2023/06/12 07:36:12;;;;;;;7.70;4.78;;;15.30;58.50;;;;;;5068107;28;20219;-54
2023/06/12 07:38:43;;;;;;;7.13;4.10;;;15.30;58.50;;;;;;5053364;28;20582;-51
2023/06/12 07:41:13;;;;;;;6.57;4.47;;;15.30;58.50;;;;;;5051067;28;20234;-55
2023/06/12 07:43:44;;;;;;;6.78;4.43;;;15.30;58.50;;;;;;5049981;28;20388;-52
2023/06/12 07:46:16;;;;;;;5.82;4.30;;;15.30;58.50;;;;;;5050551;28;20591;-51
2023/06/12 07:48:46;;;;;;;7.13;4.28;;;15.30;58.50;;;;;;5051535;28;20659;-53
2023/06/12 07:51:19;;;;;;;6.90;4.22;;;15.20;58.40;;;;;;5052317;28;20199;-54
2023/06/12 07:53:50;;;;;;;7.90;4.35;;;15.20;58.40;;;;;;5053544;28;20678;-53
2023/06/12 07:56:20;;;;;;;6.95;4.28;;;15.20;59.00;;;;;;5059306;28;20368;-56
2023/06/12 07:58:52;;;;;;;6.30;3.45;;;15.20;58.40;;;;;;5050693;28;20551;-52
2023/06/12 08:01:23;;;;;;;5.57;4.13;;;15.20;58.40;;;;;;5050436;28;20191;-54
2023/06/12 08:03:56;;;;;;;5.38;3.58;;;15.20;58.40;;;;;;5051238;28;20258;-57
2023/06/12 08:06:29;;;;;;;5.53;4.22;;;15.20;58.40;;;;;;5048808;28;20306;-57
2023/06/12 08:08:59;;;;;;;5.20;3.65;;;15.10;58.30;;;;;;5051151;28;20291;-52
2023/06/12 08:11:30;;;;;;;5.40;3.40;;;15.10;58.30;;;;;;5051278;28;20210;-53
2023/06/12 08:14:01;;;;;;;7.68;4.07;;;15.10;58.30;;;;;;5051779;28;20199;-56
2023/06/12 08:16:32;;;;;;;7.10;4.05;;;15.10;58.30;;;;;;5050637;28;20242;-54
2023/06/12 08:19:03;;;;;;;6.18;4.00;;;15.10;58.30;;;;;;5050327;28;20207;-55
2023/06/12 08:21:36;;;;;;;8.90;4.60;;;15.10;58.30;;;;;;5051185;28;20587;-52
2023/06/12 08:24:07;;;;;;;5.68;4.22;;;15.10;58.30;;;;;;5051333;28;20203;-54
2023/06/12 08:26:38;;;;;;;5.72;3.97;;;15.00;58.20;;;;;;5050808;28;20215;-57
2023/06/12 08:29:09;;;;;;;5.20;4.15;;;15.00;58.30;;;;;;5051816;28;20195;-47
2023/06/12 08:31:40;;;;;;;6.55;4.38;;;15.00;58.30;;;;;;5050496;28;20199;-47
2023/06/12 08:34:11;;;;;;;5.93;3.65;;;15.00;58.30;;;;;;5052341;28;20191;-50
2023/06/12 08:36:43;;;;;;;4.95;3.60;;;15.00;58.30;;;;;;5030900;28;20846;-48
2023/06/12 08:39:14;;;;;;;7.40;4.22;;;15.00;58.20;;;;;;5031124;28;20554;-51
2023/06/12 08:41:55;;;;;;;6.55;4.18;;;14.90;58.20;;;;;;5030755;28;20200;-47
2023/06/12 08:44:26;;;;;;;6.10;3.92;;;14.90;58.20;;;;;;5031112;28;20223;-49
2023/06/12 08:46:58;;;;;;;5.00;3.72;;;14.90;58.20;;;;;;5031157;28;20216;-49
2023/06/12 08:49:30;;;;;;;6.20;3.90;;;14.90;58.20;;;;;;5031288;28;20200;-50
2023/06/12 08:52:03;;;;;;;5.20;4.30;;;14.90;58.20;;;;;;5031072;28;20647;-65
2023/06/12 08:54:36;;;;;;;13.88;7.55;;;14.90;58.20;;;;;;5030715;28;20228;-50
2023/06/12 08:57:08;;;;;;;11.38;6.50;;;14.80;57.50;;;;;;5036953;28;20219;-48
2023/06/12 08:59:39;;;;;;;12.38;6.40;;;14.80;56.60;;;;;;5050680;28;20202;-52
2023/06/12 09:02:11;;;;;;;10.52;5.88;;;14.60;56.00;;;;;;5050762;28;20210;-51
2023/06/12 09:04:46;;;;;;;10.43;5.57;;;14.50;55.80;;;;;;5050721;28;20211;-52
2023/06/12 09:07:20;;;;;;;8.75;5.20;;;14.50;56.10;;;;;;5050526;28;20215;-51
2023/06/12 09:09:50;;;;;;;8.85;4.97;;;14.40;56.30;;;;;;5050711;28;20206;-51
2023/06/12 09:12:21;;;;;;;7.68;4.65;;;14.30;56.40;;;;;;5049781;28;20674;-50
2023/06/12 09:14:52;;;;;;;9.35;4.70;;;14.30;56.60;;;;;;5049990;28;20224;-48
2023/06/12 09:17:28;;;;;;;7.65;4.38;;;14.30;56.80;;;;;;5050373;28;20302;-49
2023/06/12 09:20:00;;;;;;;9.15;4.88;;;14.30;57.00;;;;;;5050156;28;20718;-55
2023/06/12 09:22:33;;;;;;;7.00;4.28;;;14.30;57.10;;;;;;5050813;28;20608;-52
2023/06/12 09:25:08;;;;;;;6.97;4.03;;;14.30;57.00;;;;;;5030710;28;20200;-50
2023/06/12 09:27:45;;;;;;;6.70;3.65;;;14.30;57.10;;;;;;5042213;28;20207;-52
2023/06/12 09:30:16;;;;;;;6.93;3.58;;;14.20;57.20;;;;;;5052622;28;20195;-56
2023/06/12 09:32:47;;;;;;;4.90;3.20;;;14.30;57.30;;;;;;5052700;28;20667;-56
2023/06/12 09:35:20;;;;;;;8.35;3.92;;;14.20;57.30;;;;;;5055809;28;20306;-56
2023/06/12 09:37:52;;;;;;;6.32;4.10;;;14.30;57.40;;;;;;5074354;28;20209;-56
2023/06/12 09:40:23;;;;;;;7.38;3.88;;;14.30;57.50;;;;;;5069907;28;20669;-55
2023/06/12 09:42:54;;;;;;;5.38;3.42;;;14.30;57.50;;;;;;5053285;28;20651;-57
2023/06/12 09:45:25;;;;;;;5.30;3.53;;;14.20;57.50;;;;;;5054915;28;20190;-55
2023/06/12 09:47:56;;;;;;;5.18;3.30;;;14.30;57.70;;;;;;5062195;28;20194;-53
2023/06/12 09:50:26;;;;;;;6.13;3.65;;;14.30;57.80;;;;;;5065171;28;20206;-57
2023/06/12 09:53:02;;;;;;;5.30;3.60;;;14.30;57.80;;;;;;5053108;28;20234;-56
2023/06/12 09:55:34;;;;;;;7.57;4.05;;;14.30;57.80;;;;;;5070886;28;20233;-56
2023/06/12 09:58:07;;;;;;;5.43;3.20;;;14.30;57.80;;;;;;5053207;28;20604;-58
2023/06/12 10:00:38;;;;;;;5.82;3.22;;;14.30;57.80;;;;;;5053203;28;20577;-58
2023/06/12 10:03:11;;;;;;;5.18;3.20;;;14.30;57.80;;;;;;5053399;28;20203;-56
2023/06/12 10:05:45;;;;;;;6.38;3.08;;;14.30;58.40;;;;;;5052899;28;20619;-55
2023/06/12 10:08:18;;;;;;;6.03;3.05;;;14.30;59.20;;;;;;5052715;28;20202;-56
2023/06/12 10:10:50;;;;;;;4.75;3.17;;;14.30;59.20;;;;;;5052694;28;20216;-56
2023/06/12 10:13:21;;;;;;;5.75;3.00;;;14.40;59.10;;;;;;5052643;28;20204;-58
2023/06/12 10:15:54;;;;;;;5.88;3.45;;;14.40;58.80;;;;;;5052406;28;20265;-55
2023/06/12 10:18:26;;;;;;;4.93;3.47;;;14.40;58.70;;;;;;5053129;28;20612;-53
2023/06/12 10:20:57;;;;;;;6.95;3.45;;;14.40;58.60;;;;;;5053047;28;20219;-57
2023/06/12 10:23:31;;;;;;;4.68;3.38;;;14.40;58.50;;;;;;5052646;28;20199;-56
2023/06/12 10:26:02;;;;;;;5.15;3.05;;;14.40;58.40;;;;;;5052315;28;20203;-56
2023/06/12 10:28:33;;;;;;;5.30;3.10;;;14.40;58.40;;;;;;5053270;28;20204;-57
2023/06/12 10:31:14;;;;;;;4.10;2.83;;;14.30;58.30;;;;;;5050152;28;20219;-56
2023/06/12 10:33:59;;;;;;;5.57;3.05;;;14.40;58.30;;;;;;5051598;28;20578;-55
2023/06/12 10:36:43;;;;;;;4.57;2.90;;;14.30;58.20;;;;;;5053054;28;20305;-57
2023/06/12 10:39:25;;;;;;;4.50;3.20;;;14.30;58.20;;;;;;5032214;28;20210;-56
2023/06/12 10:41:57;;;;;;;6.13;3.42;;;14.30;58.20;;;;;;5043563;28;20191;-57
2023/06/12 10:44:41;;;;;;;4.65;3.03;;;14.30;58.10;;;;;;5052731;28;20282;-55
2023/06/12 10:47:23;;;;;;;5.88;3.10;;;14.30;58.10;;;;;;5052193;28;20631;-56
2023/06/12 10:50:01;;;;;;;5.13;3.03;;;14.30;58.10;;;;;;5051278;28;20500;-56
2023/06/12 10:52:31;;;;;;;4.53;3.00;;;14.30;58.10;;;;;;5052197;28;20190;-57
2023/06/12 10:55:23;;;;;;;4.45;2.75;;;14.30;58.10;;;;;;5051652;28;20207;-52
2023/06/12 10:57:57;;;;;;;3.47;2.90;;;14.30;58.10;;;;;;5052655;28;20192;-51
2023/06/12 11:00:33;;;;;;;4.55;2.65;;;14.30;58.10;;;;;;5052326;28;20199;-53
2023/06/12 11:03:04;;;;;;;3.88;2.75;;;14.20;58.00;;;;;;5052318;28;20227;-57
2023/06/12 11:05:36;;;;;;;3.78;2.70;;;14.20;58.00;;;;;;5052572;28;20589;-58
2023/06/12 11:08:08;;;;;;;5.10;2.70;;;14.20;58.00;;;;;;5051871;28;20678;-56
2023/06/12 11:10:41;;;;;;;3.88;3.05;;;14.20;58.10;;;;;;5052660;28;20239;-58
2023/06/12 11:13:12;;;;;;;5.10;2.85;;;14.20;58.10;;;;;;5031710;28;20595;-58
2023/06/12 11:15:46;;;;;;;3.42;2.55;;;14.20;58.00;;;;;;5031579;28;20224;-53
2023/06/12 11:18:17;;;;;;;4.30;2.80;;;14.20;58.10;;;;;;5031727;28;20203;-54
2023/06/12 11:20:54;;;;;;;4.47;2.83;;;14.10;58.00;;;;;;5031572;28;20551;-55
2023/06/12 11:23:28;;;;;;;4.18;2.67;;;14.10;58.10;;;;;;5031690;28;20188;-56
2023/06/12 11:26:01;;;;;;;3.35;2.55;;;14.10;58.00;;;;;;5032430;28;20224;-54
2023/06/12 11:28:32;;;;;;;3.55;2.50;;;14.10;58.00;;;;;;5050484;28;20260;-57
2023/06/12 11:31:03;;;;;;;3.72;2.65;;;14.10;58.00;;;;;;5052848;28;20191;-57
2023/06/12 11:33:36;;;;;;;4.47;2.78;;;14.10;58.00;;;;;;5059631;28;20285;-55
2023/06/12 11:36:07;;;;;;;3.17;2.38;;;14.10;58.00;;;;;;5059051;28;20233;-58
2023/06/12 11:38:37;;;;;;;4.38;2.90;;;14.10;57.90;;;;;;5053728;28;20572;-57
2023/06/12 11:41:13;;;;;;;2.85;2.50;;;14.10;57.90;;;;;;5051692;28;20569;-58
2023/06/12 11:43:46;;;;;;;5.78;2.70;;;14.10;57.90;;;;;;5052008;28;20191;-56
2023/06/12 11:46:17;;;;;;;2.92;2.50;;;14.00;57.90;;;;;;5051090;28;20222;-59
2023/06/12 11:48:48;;;;;;;4.30;3.00;;;14.00;57.80;;;;;;5063682;28;20240;-57
2023/06/12 11:51:19;;;;;;;2.92;2.10;;;14.00;57.90;;;;;;5051343;28;20202;-55
2023/06/12 11:53:49;;;;;;;3.20;2.25;;;14.00;57.80;;;;;;5050781;28;20240;-52
2023/06/12 11:56:23;;;;;;;3.75;2.50;;;14.00;57.80;;;;;;5051642;28;20262;-57
2023/06/12 11:58:55;;;;;;;4.28;2.72;;;14.00;57.80;;;;;;5054110;28;20187;-55
2023/06/12 12:01:25;;;;;;;4.78;2.50;;;14.00;57.80;;;;;;5056676;28;20187;-53
2023/06/12 12:04:03;;;;;;;5.22;2.70;;;14.00;57.80;;;;;;5071112;28;20198;-58
2023/06/12 12:06:47;;;;;;;3.63;2.67;;;13.90;57.80;;;;;;5071155;28;20302;-55
2023/06/12 12:09:25;;;;;;;3.10;2.10;;;13.90;57.80;;;;;;5071114;28;20194;-56
2023/06/12 12:12:08;;;;;;;3.45;2.42;;;13.90;57.80;;;;;;5071530;28;20665;-55
2023/06/12 12:14:49;;;;;;;3.38;2.10;;;13.90;57.70;;;;;;5071599;28;20226;-58
2023/06/12 12:17:21;;;;;;;3.83;2.33;;;13.90;57.70;;;;;;5071387;28;20659;-58
2023/06/12 12:20:02;;;;;;;3.05;2.30;;;13.90;57.70;;;;;;5071679;28;20616;-55
2023/06/12 12:22:32;;;;;;;3.47;2.22;;;13.90;57.70;;;;;;5071025;28;20199;-54
2023/06/12 12:25:03;;;;;;;3.28;2.50;;;13.90;57.70;;;;;;5071083;28;20198;-53
2023/06/12 12:27:38;;;;;;;2.90;2.25;;;13.90;57.70;;;;;;5061018;28;20258;-52
2023/06/12 12:30:10;;;;;;;3.95;2.60;;;13.80;57.70;;;;;;5034153;28;20203;-55
2023/06/12 12:32:41;;;;;;;4.22;2.53;;;13.80;57.70;;;;;;5050458;28;20298;-55
2023/06/12 12:35:12;;;;;;;3.17;2.30;;;13.80;57.70;;;;;;5051237;28;20199;-57
2023/06/12 12:37:43;;;;;;;3.97;2.25;;;13.80;57.70;;;;;;5051300;28;20220;-53
2023/06/12 12:40:14;;;;;;;3.55;2.22;;;13.80;57.70;;;;;;5050961;28;20252;-51
2023/06/12 12:42:48;;;;;;;3.08;2.20;;;13.70;57.70;;;;;;5050646;28;20655;-56
2023/06/12 12:45:19;;;;;;;3.25;2.33;;;13.80;57.70;;;;;;5051022;28;20196;-56
2023/06/12 12:47:51;;;;;;;3.20;2.20;;;13.70;57.70;;;;;;5061716;28;20191;-55
2023/06/12 12:50:23;;;;;;;2.45;2.20;;;13.70;57.70;;;;;;5071595;28;20203;-55
2023/06/12 12:52:53;;;;;;;3.78;2.15;;;13.80;57.80;;;;;;5070754;28;20202;-55
2023/06/12 12:55:24;;;;;;;2.67;1.90;;;13.70;57.70;;;;;;5070897;28;20202;-55
2023/06/12 12:57:56;;;;;;;2.85;2.00;;;13.70;57.70;;;;;;5057471;28;20238;-53
2023/06/12 13:00:27;;;;;;;2.17;1.73;;;13.70;57.70;;;;;;5050956;28;20191;-56
2023/06/12 13:02:58;;;;;;;3.35;1.92;;;13.70;57.70;;;;;;5050966;28;20261;-55
2023/06/12 13:05:28;;;;;;;2.55;2.00;;;13.70;57.70;;;;;;5051928;28;20195;-55
2023/06/12 13:07:59;;;;;;;3.55;2.30;;;13.70;57.70;;;;;;5054460;28;20659;-52
2023/06/12 13:10:30;;;;;;;2.92;2.20;;;13.70;57.70;;;;;;5054569;28;20462;-57
2023/06/12 13:13:02;;;;;;;3.05;1.90;;;13.60;57.70;;;;;;5054359;28;20556;-56